createdAt,value
2018-07-31T00:00:14.371Z,45.00
2018-07-31T00:02:42.538Z,45.90
2018-07-31T00:10:06.690Z,45.60
2018-07-31T00:12:34.847Z,46.00
2018-07-31T00:15:03.012Z,46.00
2018-07-31T00:17:31.126Z,46.10
2018-07-31T00:19:59.306Z,46.10
2018-07-31T00:24:55.336Z,46.40
2018-07-31T00:27:23.503Z,47.70
2018-07-31T00:29:51.630Z,47.20
2018-07-31T00:32:19.800Z,47.50
2018-07-31T00:34:48.943Z,47.20
2018-07-31T00:37:17.106Z,48.30
2018-07-31T00:39:45.238Z,48.80
2018-07-31T00:42:13.385Z,49.00
2018-07-31T00:47:09.411Z,48.40
2018-07-31T00:49:37.582Z,47.60
2018-07-31T00:54:34.139Z,48.60
2018-07-31T00:57:03.017Z,48.20
2018-07-31T00:59:31.531Z,49.40
2018-07-31T01:01:59.933Z,48.10
2018-07-31T01:04:28.727Z,49.20
2018-07-31T01:06:57.893Z,49.20
2018-07-31T01:09:26.053Z,50.10
2018-07-31T01:11:54.179Z,50.70
2018-07-31T01:16:50.221Z,49.80
2018-07-31T01:21:46.323Z,50.70
2018-07-31T01:26:42.450Z,50.80
2018-07-31T01:29:10.611Z,50.50
2018-07-31T01:31:39.572Z,50.50
2018-07-31T01:36:36.347Z,50.40
2018-07-31T01:39:07.607Z,51.20
2018-07-31T01:44:03.655Z,51.20
2018-07-31T01:46:31.829Z,51.70
2018-07-31T01:48:59.959Z,51.60
2018-07-31T01:53:56.035Z,50.80
2018-07-31T01:56:24.159Z,53.00
2018-07-31T01:58:52.378Z,52.60
2018-07-31T02:06:16.523Z,52.10
2018-07-31T02:08:44.687Z,52.40
2018-07-31T02:16:08.675Z,52.50
2018-07-31T02:18:36.795Z,53.20
2018-07-31T02:21:04.986Z,53.40
2018-07-31T02:26:01.111Z,53.90
2018-07-31T02:28:29.298Z,54.40
2018-07-31T02:30:57.405Z,54.10
2018-07-31T02:33:25.547Z,54.30
2018-07-31T02:35:53.666Z,55.30
2018-07-31T02:38:21.846Z,54.40
2018-07-31T02:40:50.100Z,54.10
2018-07-31T02:43:18.238Z,54.50
2018-07-31T02:45:46.510Z,54.90
2018-07-31T02:48:14.634Z,54.90
2018-07-31T02:50:42.782Z,55.50
2018-07-31T02:53:10.935Z,55.20
2018-07-31T02:55:39.092Z,55.80
2018-07-31T02:58:08.082Z,55.50
2018-07-31T03:00:36.252Z,55.20
2018-07-31T03:03:04.455Z,55.90
2018-07-31T03:05:32.619Z,55.20
2018-07-31T03:08:00.828Z,56.30
2018-07-31T03:10:28.951Z,56.70
2018-07-31T03:12:57.135Z,56.30
2018-07-31T03:15:25.302Z,57.00
2018-07-31T03:17:53.463Z,57.00
2018-07-31T03:20:21.646Z,57.00
2018-07-31T03:22:50.753Z,57.60
2018-07-31T03:25:18.901Z,57.50
2018-07-31T03:27:47.060Z,57.50
2018-07-31T03:30:15.215Z,57.60
2018-07-31T03:35:11.272Z,58.80
2018-07-31T03:37:39.543Z,58.60
2018-07-31T03:40:07.687Z,59.40
2018-07-31T03:42:35.825Z,59.50
2018-07-31T03:45:04.506Z,59.70
2018-07-31T03:47:32.679Z,60.00
2018-07-31T03:50:00.868Z,60.70
2018-07-31T03:52:28.974Z,60.70
2018-07-31T03:54:57.127Z,61.00
2018-07-31T03:57:25.354Z,61.60
2018-07-31T03:59:53.526Z,62.50
2018-07-31T04:02:21.656Z,62.30
2018-07-31T04:04:50.316Z,63.00
2018-07-31T04:07:18.461Z,63.70
2018-07-31T04:09:46.671Z,64.10
2018-07-31T04:12:15.339Z,64.40
2018-07-31T04:14:43.820Z,64.70
2018-07-31T04:17:12.020Z,65.80
2018-07-31T04:19:40.181Z,66.10
2018-07-31T04:22:08.326Z,66.30
2018-07-31T04:24:36.668Z,67.40
2018-07-31T04:27:04.870Z,67.70
2018-07-31T04:29:33.079Z,66.10
2018-07-31T04:32:01.220Z,66.40
2018-07-31T04:34:29.395Z,67.40
2018-07-31T04:36:57.539Z,67.50
2018-07-31T04:39:25.687Z,68.40
2018-07-31T04:41:53.832Z,68.10
2018-07-31T04:44:22.517Z,68.10
2018-07-31T04:46:50.671Z,68.50
2018-07-31T04:49:18.802Z,68.50
2018-07-31T04:51:47.511Z,69.90
2018-07-31T04:54:15.688Z,69.70
2018-07-31T04:56:43.883Z,69.90
2018-07-31T04:59:12.032Z,68.70
2018-07-31T05:01:40.171Z,69.90
2018-07-31T05:04:08.329Z,69.90
2018-07-31T05:06:36.515Z,69.90
2018-07-31T05:09:07.991Z,70.20
2018-07-31T05:11:36.124Z,70.70
2018-07-31T05:14:04.808Z,70.10
2018-07-31T05:16:33.007Z,69.60
2018-07-31T05:19:01.115Z,70.80
2018-07-31T05:21:29.431Z,70.10
2018-07-31T05:23:57.592Z,70.20
2018-07-31T05:26:25.714Z,70.50
2018-07-31T05:28:53.869Z,71.70
2018-07-31T05:31:22.059Z,72.50
2018-07-31T05:33:50.582Z,73.00
2018-07-31T05:36:20.095Z,73.40
2018-07-31T05:38:48.266Z,74.40
2018-07-31T05:41:16.394Z,74.10
2018-07-31T05:43:44.595Z,75.20
2018-07-31T05:46:12.747Z,74.30
2018-07-31T05:48:40.904Z,74.70
2018-07-31T05:51:09.042Z,74.40
2018-07-31T05:53:37.207Z,74.40
2018-07-31T05:56:05.342Z,74.70
2018-07-31T05:58:33.690Z,74.90
2018-07-31T06:01:01.815Z,74.60
2018-07-31T06:03:30.035Z,74.60
2018-07-31T06:05:58.152Z,74.10
2018-07-31T06:08:26.375Z,75.20
2018-07-31T06:10:54.521Z,75.90
2018-07-31T06:13:22.667Z,75.50
2018-07-31T06:15:50.799Z,75.40
2018-07-31T06:18:18.980Z,74.30
2018-07-31T06:20:47.173Z,75.10
2018-07-31T06:23:15.343Z,74.30
2018-07-31T06:25:43.467Z,73.00
2018-07-31T06:30:39.648Z,71.90
2018-07-31T06:33:07.799Z,71.00
2018-07-31T06:35:36.851Z,70.30
2018-07-31T06:38:05.007Z,70.00
2018-07-31T06:40:33.255Z,70.80
2018-07-31T06:43:01.433Z,71.00
2018-07-31T06:45:30.114Z,65.90
2018-07-31T06:47:58.258Z,59.00
2018-07-31T06:50:26.400Z,54.20
2018-07-31T06:52:54.559Z,49.00
2018-07-31T06:55:22.766Z,46.40
2018-07-31T06:57:50.902Z,42.90
2018-07-31T07:00:19.027Z,40.40
2018-07-31T07:02:47.179Z,41.10
2018-07-31T07:05:15.327Z,40.10
2018-07-31T07:07:43.475Z,37.00
2018-07-31T07:10:11.717Z,36.00
2018-07-31T07:12:39.938Z,36.50
2018-07-31T07:15:08.067Z,36.70
2018-07-31T07:17:36.198Z,38.40
2018-07-31T07:20:04.641Z,39.60
2018-07-31T07:22:32.805Z,40.90
2018-07-31T07:25:00.971Z,41.20
2018-07-31T07:27:29.103Z,43.00
2018-07-31T07:29:57.342Z,43.30
2018-07-31T07:32:25.501Z,44.10
2018-07-31T07:34:53.670Z,44.20
2018-07-31T07:37:21.807Z,44.20
2018-07-31T07:39:50.791Z,43.80
2018-07-31T07:42:18.945Z,44.40
2018-07-31T07:44:47.098Z,44.80
2018-07-31T07:47:15.239Z,44.70
2018-07-31T07:49:43.481Z,43.80
2018-07-31T07:52:11.750Z,42.60
2018-07-31T07:54:40.107Z,41.00
2018-07-31T07:57:08.272Z,39.50
2018-07-31T07:59:36.723Z,38.60
2018-07-31T08:02:04.904Z,38.00
2018-07-31T08:04:33.051Z,37.10
2018-07-31T08:07:01.231Z,36.90
2018-07-31T08:11:57.455Z,34.30
2018-07-31T08:14:25.936Z,34.00
2018-07-31T08:16:54.102Z,32.90
2018-07-31T08:19:23.244Z,33.50
2018-07-31T08:21:51.385Z,33.00
2018-07-31T08:24:19.965Z,33.30
2018-07-31T08:26:48.666Z,33.10
2018-07-31T08:29:16.835Z,32.00
2018-07-31T08:34:12.910Z,32.60
2018-07-31T08:36:41.047Z,31.50
2018-07-31T08:39:09.920Z,31.20
2018-07-31T08:41:38.102Z,30.20
2018-07-31T08:44:06.551Z,29.60
2018-07-31T08:46:34.719Z,29.00
2018-07-31T08:49:02.883Z,29.30
2018-07-31T08:51:32.079Z,29.20
2018-07-31T08:54:00.336Z,29.00
2018-07-31T08:56:28.480Z,27.70
2018-07-31T08:58:56.655Z,28.50
2018-07-31T09:01:24.823Z,28.40
2018-07-31T09:03:52.987Z,29.20
2018-07-31T09:06:21.119Z,29.30
2018-07-31T09:08:49.397Z,29.10
2018-07-31T09:11:17.457Z,29.50
2018-07-31T09:13:45.531Z,28.90
2018-07-31T09:16:13.588Z,27.60
2018-07-31T09:18:41.652Z,28.00
2018-07-31T09:23:37.620Z,30.10
2018-07-31T09:26:05.702Z,30.30
2018-07-31T09:31:07.221Z,29.30
2018-07-31T09:38:31.213Z,28.00
2018-07-31T09:40:59.286Z,28.80
2018-07-31T09:43:27.417Z,29.20
2018-07-31T09:45:55.481Z,30.00
2018-07-31T09:48:23.585Z,31.50
2018-07-31T09:50:51.726Z,31.70
2018-07-31T09:53:19.858Z,32.00
2018-07-31T09:55:47.935Z,32.60
2018-07-31T09:58:16.056Z,32.40
2018-07-31T10:00:50.078Z,33.40
2018-07-31T10:03:18.147Z,33.60
2018-07-31T10:05:46.212Z,34.50
2018-07-31T10:08:19.536Z,34.70
2018-07-31T10:10:47.669Z,33.50
2018-07-31T10:15:43.610Z,32.10
2018-07-31T10:18:11.801Z,31.70
2018-07-31T10:20:39.827Z,31.90
2018-07-31T10:23:07.974Z,31.50
2018-07-31T10:25:36.073Z,31.50
2018-07-31T10:28:04.267Z,31.20
2018-07-31T10:30:32.591Z,31.20
2018-07-31T10:33:01.535Z,29.30
2018-07-31T10:40:25.328Z,26.90
2018-07-31T10:42:53.391Z,26.90
2018-07-31T10:45:21.494Z,26.40
2018-07-31T10:47:49.639Z,26.80
2018-07-31T10:50:17.747Z,27.60
2018-07-31T10:52:45.844Z,28.60
2018-07-31T10:55:14.032Z,28.50
2018-07-31T10:57:42.338Z,27.60
2018-07-31T11:00:10.547Z,27.30
2018-07-31T11:02:39.290Z,28.00
2018-07-31T11:05:07.498Z,28.10
2018-07-31T11:07:35.622Z,27.40
2018-07-31T11:12:31.683Z,26.00
2018-07-31T11:14:59.827Z,25.90
2018-07-31T11:17:27.952Z,26.50
2018-07-31T11:19:56.188Z,26.30
2018-07-31T11:22:24.332Z,25.90
2018-07-31T11:27:20.450Z,23.50
2018-07-31T11:29:48.567Z,23.90
2018-07-31T11:32:16.715Z,24.10
2018-07-31T11:34:44.847Z,25.90
2018-07-31T11:37:13.327Z,27.00
2018-07-31T11:39:41.494Z,27.60
2018-07-31T11:42:09.651Z,27.50
2018-07-31T11:44:37.799Z,26.90
2018-07-31T11:47:05.912Z,27.30
2018-07-31T11:49:34.044Z,27.30
2018-07-31T11:52:02.604Z,26.40
2018-07-31T11:54:30.762Z,24.30
2018-07-31T11:56:58.879Z,24.80
2018-07-31T11:59:28.332Z,25.60
2018-07-31T12:01:56.677Z,26.30
2018-07-31T12:04:24.862Z,25.70
2018-07-31T12:06:53.017Z,26.10
2018-07-31T12:09:21.190Z,25.80
2018-07-31T12:11:49.359Z,27.30
2018-07-31T12:16:45.502Z,27.30
2018-07-31T12:19:13.639Z,25.20
2018-07-31T12:21:41.848Z,25.10
2018-07-31T12:31:33.826Z,26.30
2018-07-31T12:34:02.011Z,26.40
2018-07-31T12:36:30.173Z,26.10
2018-07-31T12:43:54.184Z,25.50
2018-07-31T12:46:22.323Z,25.30
2018-07-31T12:51:19.304Z,26.30
2018-07-31T12:53:47.459Z,26.60
2018-07-31T12:56:15.745Z,26.90
2018-07-31T12:58:43.907Z,26.60
2018-07-31T13:01:12.120Z,27.30
2018-07-31T13:03:40.270Z,26.90
2018-07-31T13:06:08.479Z,26.70
2018-07-31T13:08:36.656Z,26.10
2018-07-31T13:11:04.807Z,25.60
2018-07-31T13:13:33.020Z,24.30
2018-07-31T13:16:01.151Z,24.00
2018-07-31T13:18:29.320Z,24.90
2018-07-31T13:20:57.474Z,24.70
2018-07-31T13:23:25.680Z,25.00
2018-07-31T13:25:53.819Z,24.80
2018-07-31T13:28:21.990Z,24.90
2018-07-31T13:30:50.171Z,24.40
2018-07-31T13:33:18.357Z,24.40
2018-07-31T13:35:46.479Z,25.20
2018-07-31T13:38:14.732Z,25.10
2018-07-31T13:40:42.923Z,24.70
2018-07-31T13:43:11.091Z,24.70
2018-07-31T13:45:39.226Z,25.50
2018-07-31T13:48:07.411Z,25.90
2018-07-31T13:50:35.558Z,24.80
2018-07-31T13:55:31.622Z,25.10
2018-07-31T13:57:59.759Z,24.70
2018-07-31T14:07:51.851Z,25.60
2018-07-31T14:17:43.770Z,25.10
2018-07-31T14:22:40.130Z,27.50
2018-07-31T14:25:08.307Z,27.30
2018-07-31T14:30:06.500Z,29.60
2018-07-31T14:32:34.700Z,28.80
2018-07-31T14:35:02.855Z,29.20
2018-07-31T14:44:54.939Z,26.90
2018-07-31T14:47:23.054Z,27.90
2018-07-31T14:49:51.660Z,28.90
2018-07-31T14:57:15.658Z,29.60
2018-07-31T15:14:31.567Z,30.00
2018-07-31T15:16:59.752Z,29.90
2018-07-31T15:19:27.934Z,30.30
2018-07-31T15:21:56.088Z,30.70
2018-07-31T15:24:24.787Z,29.50
2018-07-31T15:26:52.916Z,30.00
2018-07-31T15:29:21.088Z,30.00
2018-07-31T15:31:49.283Z,29.30
2018-07-31T15:39:13.860Z,30.00
2018-07-31T15:41:42.346Z,30.60
2018-07-31T15:44:10.942Z,31.10
2018-07-31T15:46:39.099Z,30.40
2018-07-31T15:49:07.271Z,31.10
2018-07-31T15:51:35.454Z,30.70
2018-07-31T15:54:03.668Z,31.20
2018-07-31T15:56:31.848Z,33.00
2018-07-31T15:59:00.009Z,31.90
2018-07-31T16:01:28.557Z,32.30
2018-07-31T16:03:56.851Z,31.80
2018-07-31T16:06:25.032Z,31.50
2018-07-31T16:08:53.236Z,31.60
2018-07-31T16:11:21.400Z,32.20
2018-07-31T16:13:49.576Z,30.80
2018-07-31T16:16:17.727Z,30.70
2018-07-31T16:18:45.903Z,31.90
2018-07-31T16:21:14.061Z,31.00
2018-07-31T16:23:42.231Z,31.20
2018-07-31T16:26:10.432Z,30.00
2018-07-31T16:28:38.611Z,29.90
2018-07-31T16:31:06.783Z,30.50
2018-07-31T16:33:34.927Z,31.40
2018-07-31T16:36:03.214Z,31.30
2018-07-31T16:38:31.405Z,31.30
2018-07-31T16:40:59.579Z,30.80
2018-07-31T16:43:27.759Z,29.90
2018-07-31T16:48:23.864Z,30.00
2018-07-31T16:50:52.027Z,30.50
2018-07-31T16:53:20.189Z,30.30
2018-07-31T16:58:16.366Z,30.30
2018-07-31T17:00:44.567Z,29.80
2018-07-31T17:08:08.734Z,30.80
2018-07-31T17:10:36.871Z,31.50
2018-07-31T17:13:05.049Z,31.20
2018-07-31T17:15:33.315Z,32.20
2018-07-31T17:18:01.590Z,31.60
2018-07-31T17:20:29.770Z,31.50
2018-07-31T17:22:57.907Z,32.10
2018-07-31T17:25:26.228Z,31.80
2018-07-31T17:27:54.374Z,33.00
2018-07-31T17:30:23.715Z,32.00
2018-07-31T17:32:53.288Z,32.40
2018-07-31T17:35:21.605Z,31.80
2018-07-31T17:37:51.474Z,32.00
2018-07-31T17:40:20.413Z,32.30
2018-07-31T17:42:48.559Z,32.50
2018-07-31T17:45:16.698Z,32.50
2018-07-31T17:47:48.932Z,33.00
2018-07-31T17:50:18.047Z,33.40
2018-07-31T17:53:52.377Z,33.40
2018-07-31T17:56:20.626Z,33.30
2018-07-31T17:58:48.823Z,33.80
2018-07-31T18:01:16.974Z,33.90
2018-07-31T18:03:45.137Z,33.70
2018-07-31T18:06:13.223Z,34.60
2018-07-31T18:08:41.408Z,34.90
2018-07-31T18:11:09.543Z,35.20
2018-07-31T18:13:37.729Z,35.40
2018-07-31T18:16:06.133Z,35.10
2018-07-31T18:18:34.304Z,35.20
2018-07-31T18:21:02.504Z,35.60
2018-07-31T18:23:30.734Z,35.30
2018-07-31T18:25:58.826Z,35.30
2018-07-31T18:28:26.989Z,35.50
2018-07-31T18:30:55.139Z,35.60
2018-07-31T18:35:52.003Z,36.10
2018-07-31T18:38:20.179Z,36.20
2018-07-31T18:40:48.394Z,36.60
2018-07-31T18:43:16.545Z,36.70
2018-07-31T18:45:44.683Z,37.10
2018-07-31T18:48:12.831Z,36.90
2018-07-31T18:50:41.204Z,37.50
2018-07-31T18:53:09.332Z,36.50
2018-07-31T19:10:24.942Z,37.10
2018-07-31T19:17:48.951Z,37.80
2018-07-31T19:22:45.043Z,38.00
2018-07-31T19:27:41.783Z,38.00
2018-07-31T19:30:09.882Z,38.10
2018-07-31T19:37:33.941Z,38.50
2018-07-31T19:42:29.995Z,38.50
2018-07-31T19:44:58.142Z,38.70
2018-07-31T19:47:26.311Z,38.80
2018-07-31T19:57:18.278Z,38.80
2018-07-31T19:59:46.461Z,38.90
2018-07-31T20:04:42.462Z,38.80
2018-07-31T20:07:10.728Z,39.00
2018-07-31T20:09:38.921Z,39.00
2018-07-31T20:17:02.839Z,39.10
2018-07-31T20:24:27.134Z,39.20
2018-07-31T20:31:51.067Z,39.50
2018-07-31T20:36:47.777Z,39.50
2018-07-31T20:46:40.012Z,40.10
2018-07-31T20:56:31.997Z,40.40
2018-07-31T20:59:00.116Z,40.50
2018-07-31T21:03:56.147Z,40.60
2018-07-31T21:06:24.281Z,40.90
2018-07-31T21:08:52.436Z,40.60
2018-07-31T21:18:44.492Z,40.40
2018-07-31T21:26:09.279Z,40.20
2018-07-31T21:31:05.324Z,40.40
2018-07-31T21:36:01.379Z,40.10
2018-07-31T21:38:29.529Z,40.20
2018-07-31T21:45:53.547Z,40.50
2018-07-31T21:50:50.933Z,40.90
2018-07-31T21:53:19.183Z,41.00
2018-07-31T21:55:47.345Z,41.10
2018-07-31T22:00:48.932Z,41.20
2018-07-31T22:08:12.904Z,41.30
2018-07-31T22:10:41.064Z,41.50
2018-07-31T22:13:09.195Z,41.60
2018-07-31T22:25:28.970Z,42.50
2018-07-31T22:27:57.098Z,42.90
2018-07-31T22:32:53.266Z,43.20
2018-07-31T22:35:21.422Z,43.40
2018-07-31T22:40:17.761Z,43.40
2018-07-31T22:42:45.866Z,44.20
2018-07-31T22:45:14.031Z,44.10
2018-07-31T22:50:10.079Z,43.90
2018-07-31T22:55:06.119Z,44.40
2018-07-31T22:57:34.255Z,44.90
2018-07-31T23:00:02.388Z,44.90
2018-07-31T23:02:30.577Z,45.10
2018-07-31T23:04:58.713Z,45.20
2018-07-31T23:07:26.935Z,45.20
2018-07-31T23:09:57.780Z,45.70
2018-07-31T23:12:26.547Z,45.60
2018-07-31T23:14:54.724Z,46.50
2018-07-31T23:17:23.350Z,45.70
2018-07-31T23:19:51.514Z,46.00
2018-07-31T23:22:31.065Z,46.00
2018-07-31T23:24:59.227Z,45.90
2018-07-31T23:27:27.494Z,45.80
2018-07-31T23:29:55.651Z,46.40
2018-07-31T23:32:23.802Z,46.70
2018-07-31T23:34:52.835Z,46.50
2018-07-31T23:37:20.989Z,46.80
2018-07-31T23:39:49.146Z,47.00
2018-07-31T23:42:17.488Z,46.70
2018-07-31T23:44:45.627Z,46.70
2018-07-31T23:47:13.780Z,46.90
2018-07-31T23:49:41.918Z,46.90
2018-07-31T23:52:10.052Z,46.70
2018-07-31T23:54:38.192Z,47.00
2018-07-31T23:57:06.406Z,47.20
2018-07-31T23:59:34.521Z,47.20
